• Join FlightAware (Why Join?)
  • Login
  • US Flag 
03:31PM EDT


 

Airport Tracker/Info


-or-


 

Live Flight TrackerFlight Track Log ✈ N24440 ✈ 02-Sep-2013 ✈ KDTS - KBTR

Flight Track Log - Related Links

Times and Time Zones

All times are in EDT time to prevent confusion due to time zone crossing. See the N24440 flight status page for this flight to view local times or setup timezone preferences in your user account.

Time Position Orientation Groundspeed Altitude Reporting Facility
EDT Latitude Longitude Course Direction KTS MPH feet Rate Location/Type
11:17AM 30.4000 -86.7005 270° West  Level FlightAware Approximate
11:17AM 30.2764 -86.5581 273° West 110 127 3,500  Level Jacksonville Center
11:18AM 30.4000 -86.7395 270° West  Level FlightAware Approximate
11:18AM 30.2711 -86.5964 261° West 110 127 4,000  Level Jacksonville Center
11:19AM 30.4000 -86.7784 270° West  Level FlightAware Approximate
11:19AM 30.2744 -86.6300 277° West 107 123 4,400  Level Jacksonville Center
11:20AM 30.4003 -86.8173 300° West  Level FlightAware Approximate
11:20AM 30.2775 -86.6664 276° West 105 121 4,800  Level Jacksonville Center
11:21AM 30.4167 -86.8512 273° West  Level FlightAware Approximate
11:21AM 30.2806 -86.7000 276° West 110 127 5,200  Level Jacksonville Center
11:22AM 30.4183 -86.8901 273° West  Level FlightAware Approximate
11:22AM 30.2817 -86.7361 272° West 109 125 5,600  Level Jacksonville Center
11:23AM 30.2867 -86.7725 279° West 109 125 6,000 360 Climbing Jacksonville Center
11:24AM 30.2922 -86.8039 282° West 104 120 6,400 420 Climbing Jacksonville Center
11:25AM 30.2972 -86.8378 280° West 99 114 6,900 420 Climbing Jacksonville Center
11:26AM 30.2983 -86.8739 272° West 100 115 7,300 360 Climbing Jacksonville Center
11:27AM 30.3017 -86.9031 278° West 105 121 7,700 360 Climbing Jacksonville Center
11:28AM 30.3025 -86.9392 272° West 111 128 8,100 180 Climbing Jacksonville Center
11:29AM 30.3031 -86.9847 271° West 128 147 8,100  Level Jacksonville Center
11:30AM 30.3058 -87.0306 274° West 131 151 8,100  Level Jacksonville Center
11:31AM 30.3108 -87.0694 278° West 132 152 8,100  Level Jacksonville Center
11:32AM 30.3114 -87.1150 271° West 135 155 8,100  Level Jacksonville Center
11:33AM 30.3142 -87.1586 274° West 138 159 8,100  Level Jacksonville Center
11:34AM 30.3231 -87.2022 283° West 138 159 8,100  Level Jacksonville Center
11:35AM 30.3217 -87.2406 268° West 130 150 8,100  Level Jacksonville Center
11:36AM 30.3225 -87.2839 271° West 124 143 8,100  Level Jacksonville Center
11:37AM 30.3253 -87.3203 275° West 122 140 8,100  Level Jacksonville Center
11:38AM 30.3258 -87.3611 271° West 118 136 8,100 -60 Level Jacksonville Center
11:39AM 30.3308 -87.3975 279° West 127 146 8,000 -120 Descending Jacksonville Center
11:40AM 30.3356 -87.4433 277° West 137 158 7,900 -120 Descending Jacksonville Center
11:41AM 30.3381 -87.4867 274° West 139 160 7,800  Descending Jacksonville Center
11:42AM 30.3428 -87.5303 277° West 129 148 8,000 60 Climbing Jacksonville Center
11:44AM 30.3511 -87.5897 279° West 131 151 8,000  Level Houston Center
11:45AM 30.3525 -87.6322 272° West 132 152 8,000  Level Houston Center
11:46AM 30.3550 -87.6728 274° West 128 147 8,000  Level Houston Center
11:47AM 30.3589 -87.7208 275° West 125 144 8,000  Level Houston Center
11:48AM 30.3606 -87.7642 273° West 132 152 8,000  Level Houston Center
11:49AM 30.3647 -87.8092 276° West 139 160 8,000  Level Houston Center
11:50AM 30.3664 -87.8511 273° West 132 152 8,000  Level Houston Center
11:51AM 30.3681 -87.8931 273° West 131 151 8,000  Level Houston Center
11:52AM 30.3703 -87.9367 273° West 134 154 8,000  Level Houston Center
11:53AM 30.3728 -87.9883 273° West 133 153 8,000  Level Houston Center
11:54AM 30.3750 -88.0308 273° West 133 153 8,000  Level Houston Center
11:55AM 30.3789 -88.0733 276° West 132 152 8,000  Level Houston Center
11:56AM 30.3808 -88.1156 273° West 132 152 8,000  Level Houston Center
11:57AM 30.3836 -88.1617 274° West 138 159 8,000  Level Houston Center
11:58AM 30.3869 -88.2042 275° West 136 157 8,000  Level Houston Center
11:59AM 30.3894 -88.2472 274° West 135 155 8,000  Level Houston Center
12:00PM 30.3922 -88.2997 274° West 135 155 8,000  Level Houston Center
12:01PM 30.3944 -88.3422 273° West 134 154 8,000  Level Houston Center
12:02PM 30.3969 -88.3853 274° West 134 154 8,000  Level Houston Center
12:03PM 30.3992 -88.4278 273° West 134 154 8,000  Level Houston Center
12:05PM 30.4025 -88.4719 275° West 135 155 8,000  Level Houston Center
12:06PM 30.4061 -88.5158 275° West 137 158 8,100  Climbing Houston Center
12:07PM 30.4131 -88.5678 279° West 136 157 8,100  Level Houston Center
12:08PM 30.4206 -88.6108 281° West 137 158 8,100  Level Houston Center
12:09PM 30.4211 -88.6536 271° West 141 162 8,100  Level Houston Center
12:10PM 30.4161 -88.6969 262° West 137 158 8,100  Level Houston Center
12:11PM 30.4133 -88.7400 266° West 135 155 8,100  Level Houston Center
12:12PM 30.4172 -88.7825 276° West 134 154 8,100  Level Houston Center
12:13PM 30.4250 -88.8339 280° West 135 155 8,100  Level Houston Center
12:14PM 30.4253 -88.8778 270° West 136 157 8,100  Level Houston Center
12:15PM 30.4247 -88.9203 269° West 134 154 8,100  Level Houston Center
12:16PM 30.4264 -88.9633 273° West 135 155 8,100  Level Houston Center
12:17PM 30.4294 -89.0058 275° West 134 154 8,100  Level Houston Center
12:18PM 30.4317 -89.0472 274° West 132 152 8,100  Level Houston Center
12:19PM 30.4369 -89.0992 277° West 134 154 8,100  Level Houston Center
12:20PM 30.4400 -89.1428 275° West 135 155 8,100  Level Houston Center
12:21PM 30.4436 -89.1861 276° West 136 157 8,100  Level Houston Center
12:22PM 30.4464 -89.2286 274° West 134 154 8,100  Level Houston Center
12:23PM 30.4486 -89.2714 273° West 134 154 8,100  Level Houston Center
12:24PM 30.4511 -89.3225 273° West 133 153 8,100  Level Houston Center
12:25PM 30.4542 -89.3653 275° West 134 154 8,100  Level Houston Center
12:26PM 30.4558 -89.4081 273° West 133 153 8,100  Level Houston Center
12:27PM 30.4581 -89.4508 273° West 134 154 8,100  Level Houston Center
12:28PM 30.4606 -89.4914 274° West 133 153 8,100  Level Houston Center
12:29PM 30.4622 -89.5347 273° West 130 150 8,100  Level Houston Center
12:30PM 30.4636 -89.5758 272° West 132 152 8,100  Level Houston Center
12:31PM 30.4658 -89.6336 273° West 133 153 8,100  Level Houston Center
12:32PM 30.4692 -89.6719 276° West 132 152 8,100  Level Houston Center
12:33PM 30.4706 -89.7133 272° West 133 153 8,100  Level Houston Center
12:35PM 30.4733 -89.7547 274° West 131 151 8,100  Level Houston Center
12:36PM 30.4756 -89.8044 273° West 130 150 8,100  Level Houston Center
12:36PM 30.4767 -89.8308 273° West 130 150 8,100  Level Houston Center
12:38PM 30.4794 -89.8878 273° West 130 150 8,100  Level Houston Center
12:39PM 30.4781 -89.9344 268° West 133 153 8,100  Level Houston Center
12:40PM 30.4772 -89.9781 269° West 134 154 8,100  Level Houston Center
12:40PM 30.4803 -90.0092 277° West 135 155 8,100  Level Houston Center
12:41PM 30.4817 -90.0503 272° West 134 154 8,100  Level Houston Center
12:42PM 30.4850 -90.0911 275° West 133 153 8,100  Level Houston Center
12:43PM 30.4883 -90.1097 282° West 133 153 8,100  Level Houston Center
12:44PM 30.4889 -90.1464 271° West 131 151 8,100  Level Houston Center
12:44PM 30.4919 -90.1800 276° West 132 152 8,100  Level Houston Center
12:45PM 30.4933 -90.2211 272° West 133 153 8,100  Level Houston Center
12:46PM 30.4961 -90.2456 278° West 133 153 8,100  Level Houston Center
12:47PM 30.4975 -90.2881 272° West 132 152 8,100  Level Houston Center
12:48PM 30.4997 -90.3300 274° West 132 152 8,100 -300 Level Houston Center
12:49PM 30.5006 -90.3747 271° West 137 158 7,600 -540 Descending Houston Center
12:50PM 30.5003 -90.4228 270° West 146 168 7,000 -540 Descending Houston Center
12:51PM 30.5031 -90.4694 274° West 146 168 6,500 -540 Descending Houston Center
12:52PM 30.5058 -90.5244 273° West 144 166 6,000 -300 Descending Houston Center
12:53PM 30.5097 -90.5656 276° West 137 158 6,000  Level Houston Center
12:54PM 30.5131 -90.6039 276° West 128 147 6,000 -120 Level Houston Center
12:55PM 30.5172 -90.6433 277° West 125 144 5,800 -420 Descending Houston Center
12:56PM 30.5228 -90.6886 278° West 131 151 5,200 -600 Descending Houston Center
12:57PM 30.5347 -90.7361 286° West 143 165 4,600 -720 Descending Houston Center
12:58PM 30.5486 -90.7894 287° West 145 167 3,800 -720 Descending Houston Center
12:59PM 30.5578 -90.8364 283° West 147 169 3,200 -420 Descending Houston Center
01:00PM 30.5672 -90.8819 284° West 147 169 3,000 -120 Descending Houston Center
01:01PM 30.5744 -90.9200 282° West 135 155 3,000 -60 Level Houston Center
01:02PM 30.5839 -90.9597 285° West 128 147 2,900 -120 Descending Houston Center
01:03PM 30.5900 -91.0019 280° West 131 151 2,800 -120 Descending Houston Center
01:05PM 30.5585 -91.0226 209° Southwest  Level FlightAware Approximate
01:12PM 30.5167 -91.1333 270° West  Level FlightAware Approximate
01:13PM 30.5329 -91.1499 270° West  Level Estimated
01:14PM 30.5329 -91.1499 270° West  Level Estimated
01:15PM 30.5329 -91.1499 270° West  Level Estimated